الصفحة الرئيسية
METAR-TAF:

METAR-TAF

مطار :

مطار أكادير المسيرة الدولي

أغادير, المغرب

دائرة عرض: 30-20N, خط طول: 009-24W, ارتفاع: 74 متر

مراقبة الطقس الحالي

تاريخ ووقت الإصدار 43 دقيقة قبل الساعة 03:00UTC
ريح 4 عقدة من الشرق/الشمال الشرقي
درجة الحرارة 12°درجة مئوية
الرطوبة 94%
ضغط 1022 hPa
الرؤية: 8000 متر

METAR: GMAD 180300Z 06004KT 8000 NSC 12/11 Q1022 NOSIG

زمن: 04:43 (03:43 UTC)

توقعات

تاريخ ووقت الإصدار 4ساعات و 43 دقيقة قبل الساعة 23:00UTC
التوقعات صالحة من18 الساعة 00 UTC إلى 19 الساعة 06 UTC
ريح 6 عقدة من الشرق
الرؤية: 8000 متر
أصبح
من 18 الساعة 12 UTC إلى 18 الساعة 14 UTC
ريح 12 عقدة من الغرب
الرؤية 10 كم أو أكثر
الغيوم لا تقل 1500 م ولا وجود لمزنة ركامية السحاب الأسود

TAF: GMAD 172300Z 1800/1906 08006KT 8000 NSC BECMG 1812/1814 26012KT CAVOK

أرصاد الطقس والتوقعات من أكثر من 4000 مطار (تقارير الطقس للمطار METAR والتنبؤ بالطقس بالمطارTAF).

المحطات المتاحة هي النقط الصفراء والحمراء على الخريطة.

حرك المؤشر فوق النقطة لمعرفة اسم المحطة.

ثم انقر لمعرفة أرصاد وتوقعات الطقس.

لتغيير الخارطة: اضغط على الأزرار الخضراء مع رمز الصليب الأسود للتكبير. على الزر الأخضر مع شرطة للتصغير، أو على الأسهم الخضراء للخرائط المجاورة.


METAR-TAF: